Canelo, Arizona
Current Conditions -  °F | °C
As of 11:15 AM on Thursday 18 Dec 2014 (Local Time) from KALK Reporting Station
Broken Clouds Broken Clouds  
Wind Chill: 46°   Ceiling: 9000
Heat Index: 46°   Visibility: 10mi
Dew Point: 43°   Wind: 3mph
Humidity: 87%   Direction: 60°ENE
Pressure: 30.14"   Gusts: NA
Location:  31.6748°N, 110.553°W
Report Text: KALK 181815Z AUTO 06003KT 10SM SCT005 BKN090 08/06 A3014 RMK AO2 TSNO
Loading
Personal Weather Stations






























Interactive Weather Map New forecast layout! Learn more

10-Day Weather Forecast

Advertisements
Track Severe Weather on mobile